臺中航空站 - ATIS

METAR RCMQ 201400Z 36008KT 9999 FEW012 SCT060 20/17 Q1019 NOSIG RMK A3009=

站台狀態:Online
最後更新:2018-10-20 22:45:01